sensor_id;sensor_type;location;lat;lon;timestamp;temperature;humidity
11762;DHT22;5938;47.098;15.474;2024-01-30T00:02:44;-4.90;99.90
11762;DHT22;5938;47.098;15.474;2024-01-30T00:06:48;-4.90;99.90
11762;DHT22;5938;47.098;15.474;2024-01-30T00:10:51;-4.80;99.90
11762;DHT22;5938;47.098;15.474;2024-01-30T00:14:56;-4.80;99.90
11762;DHT22;5938;47.098;15.474;2024-01-30T00:19:00;-4.80;99.90
11762;DHT22;5938;47.098;15.474;2024-01-30T00:23:04;-5.00;99.90
11762;DHT22;5938;47.098;15.474;2024-01-30T00:27:08;-5.00;99.90
11762;DHT22;5938;47.098;15.474;2024-01-30T00:31:12;-4.90;99.90
11762;DHT22;5938;47.098;15.474;2024-01-30T00:35:16;-5.00;99.90
11762;DHT22;5938;47.098;15.474;2024-01-30T00:39:19;-5.00;99.90
11762;DHT22;5938;47.098;15.474;2024-01-30T00:43:23;-5.10;99.90
11762;DHT22;5938;47.098;15.474;2024-01-30T00:47:28;-5.20;99.90
11762;DHT22;5938;47.098;15.474;2024-01-30T00:51:32;-5.20;99.90
11762;DHT22;5938;47.098;15.474;2024-01-30T00:55:35;-5.30;99.90
11762;DHT22;5938;47.098;15.474;2024-01-30T00:59:39;-5.40;99.90
11762;DHT22;5938;47.098;15.474;2024-01-30T01:03:44;-5.30;99.90
11762;DHT22;5938;47.098;15.474;2024-01-30T01:07:47;-5.30;99.90
11762;DHT22;5938;47.098;15.474;2024-01-30T01:11:51;-5.20;99.90
11762;DHT22;5938;47.098;15.474;2024-01-30T01:15:54;-5.20;99.90
11762;DHT22;5938;47.098;15.474;2024-01-30T01:19:59;-5.40;99.90
11762;DHT22;5938;47.098;15.474;2024-01-30T01:24:03;-5.80;99.90
11762;DHT22;5938;47.098;15.474;2024-01-30T01:28:06;-5.30;99.90
11762;DHT22;5938;47.098;15.474;2024-01-30T01:32:09;-5.30;99.90
11762;DHT22;5938;47.098;15.474;2024-01-30T01:36:16;-5.30;99.90
11762;DHT22;5938;47.098;15.474;2024-01-30T01:40:19;-5.70;99.90
11762;DHT22;5938;47.098;15.474;2024-01-30T01:44:23;-5.50;99.90
11762;DHT22;5938;47.098;15.474;2024-01-30T01:48:26;-5.80;99.90
11762;DHT22;5938;47.098;15.474;2024-01-30T01:52:31;-5.30;99.90
11762;DHT22;5938;47.098;15.474;2024-01-30T01:56:35;-5.70;99.90
11762;DHT22;5938;47.098;15.474;2024-01-30T02:00:40;-5.50;99.90
11762;DHT22;5938;47.098;15.474;2024-01-30T02:04:44;-5.50;99.90
11762;DHT22;5938;47.098;15.474;2024-01-30T02:08:49;-5.50;99.90
11762;DHT22;5938;47.098;15.474;2024-01-30T02:12:52;-5.70;99.90
11762;DHT22;5938;47.098;15.474;2024-01-30T02:16:55;-5.80;99.90
11762;DHT22;5938;47.098;15.474;2024-01-30T02:25:05;-5.90;99.90
11762;DHT22;5938;47.098;15.474;2024-01-30T02:29:09;-5.80;99.90
11762;DHT22;5938;47.098;15.474;2024-01-30T02:33:12;-5.60;99.90
11762;DHT22;5938;47.098;15.474;2024-01-30T02:37:16;-5.50;99.90
11762;DHT22;5938;47.098;15.474;2024-01-30T02:41:21;-5.70;99.90
11762;DHT22;5938;47.098;15.474;2024-01-30T02:45:25;-5.70;99.90
11762;DHT22;5938;47.098;15.474;2024-01-30T02:49:28;-5.70;99.90
11762;DHT22;5938;47.098;15.474;2024-01-30T02:53:31;-5.90;99.90
11762;DHT22;5938;47.098;15.474;2024-01-30T02:57:36;-5.70;99.90
11762;DHT22;5938;47.098;15.474;2024-01-30T03:01:43;-5.90;99.90
11762;DHT22;5938;47.098;15.474;2024-01-30T03:05:47;-5.90;99.90
11762;DHT22;5938;47.098;15.474;2024-01-30T03:09:51;-6.00;99.90
11762;DHT22;5938;47.098;15.474;2024-01-30T03:13:55;-5.90;99.90
11762;DHT22;5938;47.098;15.474;2024-01-30T03:17:59;-5.90;99.90
11762;DHT22;5938;47.098;15.474;2024-01-30T03:22:02;-6.00;99.90
11762;DHT22;5938;47.098;15.474;2024-01-30T03:26:06;-6.00;99.90
11762;DHT22;5938;47.098;15.474;2024-01-30T03:30:12;-5.80;99.90
11762;DHT22;5938;47.098;15.474;2024-01-30T03:34:15;-5.90;99.90
11762;DHT22;5938;47.098;15.474;2024-01-30T03:38:19;-6.20;99.90
11762;DHT22;5938;47.098;15.474;2024-01-30T03:42:22;-6.30;99.90
11762;DHT22;5938;47.098;15.474;2024-01-30T03:46:27;-6.10;99.90
11762;DHT22;5938;47.098;15.474;2024-01-30T03:50:30;-6.10;99.90
11762;DHT22;5938;47.098;15.474;2024-01-30T03:54:34;-6.20;99.90
11762;DHT22;5938;47.098;15.474;2024-01-30T03:58:37;-6.10;99.90
11762;DHT22;5938;47.098;15.474;2024-01-30T04:02:42;-6.40;99.90
11762;DHT22;5938;47.098;15.474;2024-01-30T04:06:45;-6.10;99.90
11762;DHT22;5938;47.098;15.474;2024-01-30T04:10:49;-6.40;99.90
11762;DHT22;5938;47.098;15.474;2024-01-30T04:14:52;-6.30;99.90
11762;DHT22;5938;47.098;15.474;2024-01-30T04:18:58;-6.30;99.90
11762;DHT22;5938;47.098;15.474;2024-01-30T04:23:02;-6.20;99.90
11762;DHT22;5938;47.098;15.474;2024-01-30T04:27:05;-6.10;99.90
11762;DHT22;5938;47.098;15.474;2024-01-30T04:31:08;-6.30;99.90
11762;DHT22;5938;47.098;15.474;2024-01-30T04:35:13;-6.30;99.90
11762;DHT22;5938;47.098;15.474;2024-01-30T04:39:17;-6.40;99.90
11762;DHT22;5938;47.098;15.474;2024-01-30T04:43:20;-6.30;99.90
11762;DHT22;5938;47.098;15.474;2024-01-30T04:47:23;-6.50;99.90
11762;DHT22;5938;47.098;15.474;2024-01-30T04:51:28;-6.40;99.90
11762;DHT22;5938;47.098;15.474;2024-01-30T04:55:31;-6.30;99.90
11762;DHT22;5938;47.098;15.474;2024-01-30T04:59:35;-6.30;99.90
11762;DHT22;5938;47.098;15.474;2024-01-30T05:03:38;-6.40;99.90
11762;DHT22;5938;47.098;15.474;2024-01-30T05:07:43;-6.50;99.90
11762;DHT22;5938;47.098;15.474;2024-01-30T05:11:46;-6.50;99.90
11762;DHT22;5938;47.098;15.474;2024-01-30T05:15:50;-6.50;99.90
11762;DHT22;5938;47.098;15.474;2024-01-30T05:19:53;-6.60;99.90
11762;DHT22;5938;47.098;15.474;2024-01-30T05:23:57;-6.50;99.90
11762;DHT22;5938;47.098;15.474;2024-01-30T05:28:01;-6.60;99.90
11762;DHT22;5938;47.098;15.474;2024-01-30T05:32:05;-6.60;99.90
11762;DHT22;5938;47.098;15.474;2024-01-30T05:36:11;-6.50;99.90
11762;DHT22;5938;47.098;15.474;2024-01-30T05:40:16;-6.50;99.90
11762;DHT22;5938;47.098;15.474;2024-01-30T05:44:19;-6.50;99.90
11762;DHT22;5938;47.098;15.474;2024-01-30T05:48:23;-6.70;99.90
11762;DHT22;5938;47.098;15.474;2024-01-30T05:52:26;-6.60;99.90
11762;DHT22;5938;47.098;15.474;2024-01-30T05:56:31;-6.50;99.90
11762;DHT22;5938;47.098;15.474;2024-01-30T06:00:34;-6.50;99.90
11762;DHT22;5938;47.098;15.474;2024-01-30T06:04:37;-6.40;99.90
11762;DHT22;5938;47.098;15.474;2024-01-30T06:08:41;-6.40;99.90
11762;DHT22;5938;47.098;15.474;2024-01-30T06:12:45;-6.50;99.90
11762;DHT22;5938;47.098;15.474;2024-01-30T06:16:50;-6.50;99.90
11762;DHT22;5938;47.098;15.474;2024-01-30T06:20:53;-6.40;99.90
11762;DHT22;5938;47.098;15.474;2024-01-30T06:24:56;-6.40;99.90
11762;DHT22;5938;47.098;15.474;2024-01-30T06:29:01;-6.50;99.90
11762;DHT22;5938;47.098;15.474;2024-01-30T06:33:04;-6.40;99.90
11762;DHT22;5938;47.098;15.474;2024-01-30T06:37:08;-6.50;99.90
11762;DHT22;5938;47.098;15.474;2024-01-30T06:41:11;-6.50;99.90
11762;DHT22;5938;47.098;15.474;2024-01-30T06:45:17;-6.50;99.90
11762;DHT22;5938;47.098;15.474;2024-01-30T06:49:20;-6.50;99.90
11762;DHT22;5938;47.098;15.474;2024-01-30T06:53:24;-6.40;99.90
11762;DHT22;5938;47.098;15.474;2024-01-30T06:57:28;-6.40;99.90
11762;DHT22;5938;47.098;15.474;2024-01-30T07:01:33;-6.20;99.90
11762;DHT22;5938;47.098;15.474;2024-01-30T07:05:37;-6.30;99.90
11762;DHT22;5938;47.098;15.474;2024-01-30T07:09:40;-6.20;99.90
11762;DHT22;5938;47.098;15.474;2024-01-30T07:13:44;-6.00;99.90
11762;DHT22;5938;47.098;15.474;2024-01-30T07:17:50;-6.20;99.90
11762;DHT22;5938;47.098;15.474;2024-01-30T07:21:53;-6.10;99.90
11762;DHT22;5938;47.098;15.474;2024-01-30T07:25:56;-6.00;99.90
11762;DHT22;5938;47.098;15.474;2024-01-30T07:30:00;-5.90;99.90
11762;DHT22;5938;47.098;15.474;2024-01-30T07:34:05;-6.20;99.90
11762;DHT22;5938;47.098;15.474;2024-01-30T07:38:08;-5.80;99.90
11762;DHT22;5938;47.098;15.474;2024-01-30T07:42:11;-5.60;99.90
11762;DHT22;5938;47.098;15.474;2024-01-30T07:46:15;-5.60;99.90
11762;DHT22;5938;47.098;15.474;2024-01-30T07:50:20;-5.40;99.90
11762;DHT22;5938;47.098;15.474;2024-01-30T07:54:23;-5.40;99.90
11762;DHT22;5938;47.098;15.474;2024-01-30T07:58:27;-5.30;99.90
11762;DHT22;5938;47.098;15.474;2024-01-30T08:02:30;-5.00;99.90
11762;DHT22;5938;47.098;15.474;2024-01-30T08:06:35;-4.90;99.90
11762;DHT22;5938;47.098;15.474;2024-01-30T08:10:43;-4.80;99.90
11762;DHT22;5938;47.098;15.474;2024-01-30T08:14:47;-4.50;99.90
11762;DHT22;5938;47.098;15.474;2024-01-30T08:18:50;-4.30;99.90
11762;DHT22;5938;47.098;15.474;2024-01-30T08:22:57;-4.30;99.90
11762;DHT22;5938;47.098;15.474;2024-01-30T08:27:00;-4.10;99.90
11762;DHT22;5938;47.098;15.474;2024-01-30T08:31:04;-4.00;99.90
11762;DHT22;5938;47.098;15.474;2024-01-30T08:35:08;-3.80;99.90
11762;DHT22;5938;47.098;15.474;2024-01-30T08:39:13;-3.40;99.90
11762;DHT22;5938;47.098;15.474;2024-01-30T08:43:16;-3.30;99.90
11762;DHT22;5938;47.098;15.474;2024-01-30T08:47:20;-3.00;99.90
11762;DHT22;5938;47.098;15.474;2024-01-30T08:51:23;-2.90;99.90
11762;DHT22;5938;47.098;15.474;2024-01-30T08:55:28;-2.90;99.90
11762;DHT22;5938;47.098;15.474;2024-01-30T08:59:31;-2.80;99.90
11762;DHT22;5938;47.098;15.474;2024-01-30T09:03:35;-2.60;99.90
11762;DHT22;5938;47.098;15.474;2024-01-30T09:07:42;-2.50;99.90
11762;DHT22;5938;47.098;15.474;2024-01-30T09:11:47;-1.80;99.90
11762;DHT22;5938;47.098;15.474;2024-01-30T09:15:50;-0.80;99.90
11762;DHT22;5938;47.098;15.474;2024-01-30T09:19:54;-0.60;99.90
11762;DHT22;5938;47.098;15.474;2024-01-30T09:24:02;0.10;99.90
11762;DHT22;5938;47.098;15.474;2024-01-30T09:28:07;0.10;99.90
11762;DHT22;5938;47.098;15.474;2024-01-30T09:32:11;0.10;99.90
11762;DHT22;5938;47.098;15.474;2024-01-30T09:36:14;-0.10;99.90
11762;DHT22;5938;47.098;15.474;2024-01-30T09:40:20;-0.20;99.90
11762;DHT22;5938;47.098;15.474;2024-01-30T09:44:26;-0.10;99.90
11762;DHT22;5938;47.098;15.474;2024-01-30T09:48:32;0.20;99.90
11762;DHT22;5938;47.098;15.474;2024-01-30T09:52:35;0.40;99.90
11762;DHT22;5938;47.098;15.474;2024-01-30T09:56:39;0.80;99.90
11762;DHT22;5938;47.098;15.474;2024-01-30T10:00:43;1.00;99.90
11762;DHT22;5938;47.098;15.474;2024-01-30T10:04:48;1.70;99.90
11762;DHT22;5938;47.098;15.474;2024-01-30T10:08:52;3.40;99.90
11762;DHT22;5938;47.098;15.474;2024-01-30T10:12:55;5.10;99.90
11762;DHT22;5938;47.098;15.474;2024-01-30T10:17:01;5.90;99.90
11762;DHT22;5938;47.098;15.474;2024-01-30T10:21:12;6.40;99.90
11762;DHT22;5938;47.098;15.474;2024-01-30T10:25:16;7.70;99.90
11762;DHT22;5938;47.098;15.474;2024-01-30T10:29:20;7.70;98.40
11762;DHT22;5938;47.098;15.474;2024-01-30T10:33:25;8.60;95.30
11762;DHT22;5938;47.098;15.474;2024-01-30T10:37:30;9.80;94.10
11762;DHT22;5938;47.098;15.474;2024-01-30T10:41:42;10.80;88.70
11762;DHT22;5938;47.098;15.474;2024-01-30T10:45:49;11.30;83.70
11762;DHT22;5938;47.098;15.474;2024-01-30T10:49:56;12.20;81.20
11762;DHT22;5938;47.098;15.474;2024-01-30T10:54:01;12.60;77.60
11762;DHT22;5938;47.098;15.474;2024-01-30T10:58:05;12.20;76.50
11762;DHT22;5938;47.098;15.474;2024-01-30T11:02:10;12.20;74.60
11762;DHT22;5938;47.098;15.474;2024-01-30T11:06:17;12.20;74.20
11762;DHT22;5938;47.098;15.474;2024-01-30T11:10:24;11.30;74.90
11762;DHT22;5938;47.098;15.474;2024-01-30T11:14:30;10.90;75.10
11762;DHT22;5938;47.098;15.474;2024-01-30T11:18:39;10.90;76.50
11762;DHT22;5938;47.098;15.474;2024-01-30T11:22:45;11.00;75.40
11762;DHT22;5938;47.098;15.474;2024-01-30T11:26:49;12.00;73.80
11762;DHT22;5938;47.098;15.474;2024-01-30T11:31:03;12.30;71.50
11762;DHT22;5938;47.098;15.474;2024-01-30T11:35:07;13.50;70.20
11762;DHT22;5938;47.098;15.474;2024-01-30T11:39:16;15.70;66.90
11762;DHT22;5938;47.098;15.474;2024-01-30T11:43:20;17.80;60.50
11762;DHT22;5938;47.098;15.474;2024-01-30T11:47:24;17.90;58.20
11762;DHT22;5938;47.098;15.474;2024-01-30T11:51:29;19.20;57.80
11762;DHT22;5938;47.098;15.474;2024-01-30T11:55:35;18.00;57.30
11762;DHT22;5938;47.098;15.474;2024-01-30T11:59:40;18.00;58.10
11762;DHT22;5938;47.098;15.474;2024-01-30T12:03:48;18.60;54.70
11762;DHT22;5938;47.098;15.474;2024-01-30T12:07:52;19.10;54.70
11762;DHT22;5938;47.098;15.474;2024-01-30T12:11:58;19.60;52.40
11762;DHT22;5938;47.098;15.474;2024-01-30T12:16:02;19.10;52.20
11762;DHT22;5938;47.098;15.474;2024-01-30T12:20:07;17.00;55.60
11762;DHT22;5938;47.098;15.474;2024-01-30T12:24:13;14.30;60.10
11762;DHT22;5938;47.098;15.474;2024-01-30T12:28:19;10.80;66.80
11762;DHT22;5938;47.098;15.474;2024-01-30T12:32:23;9.80;71.40
11762;DHT22;5938;47.098;15.474;2024-01-30T12:36:26;11.60;67.50
11762;DHT22;5938;47.098;15.474;2024-01-30T12:40:33;14.40;61.70
11762;DHT22;5938;47.098;15.474;2024-01-30T12:44:42;16.30;57.90
11762;DHT22;5938;47.098;15.474;2024-01-30T12:48:46;16.90;57.20
11762;DHT22;5938;47.098;15.474;2024-01-30T12:52:50;17.60;56.00
11762;DHT22;5938;47.098;15.474;2024-01-30T12:56:54;18.90;53.90
11762;DHT22;5938;47.098;15.474;2024-01-30T13:01:01;20.70;51.10
11762;DHT22;5938;47.098;15.474;2024-01-30T13:05:12;20.50;49.50
11762;DHT22;5938;47.098;15.474;2024-01-30T13:09:19;21.00;50.00
11762;DHT22;5938;47.098;15.474;2024-01-30T13:13:23;21.70;48.70
11762;DHT22;5938;47.098;15.474;2024-01-30T13:17:28;21.60;46.70
11762;DHT22;5938;47.098;15.474;2024-01-30T13:21:31;21.00;48.50
11762;DHT22;5938;47.098;15.474;2024-01-30T13:25:35;22.10;47.70
11762;DHT22;5938;47.098;15.474;2024-01-30T13:29:38;22.40;45.60
11762;DHT22;5938;47.098;15.474;2024-01-30T13:33:46;23.10;45.70
11762;DHT22;5938;47.098;15.474;2024-01-30T13:37:51;19.50;48.40
11762;DHT22;5938;47.098;15.474;2024-01-30T13:41:55;14.90;55.30
11762;DHT22;5938;47.098;15.474;2024-01-30T13:45:59;11.40;62.80
11762;DHT22;5938;47.098;15.474;2024-01-30T13:50:05;8.90;71.10
11762;DHT22;5938;47.098;15.474;2024-01-30T13:54:17;7.70;74.90
11762;DHT22;5938;47.098;15.474;2024-01-30T13:58:21;6.80;78.70
11762;DHT22;5938;47.098;15.474;2024-01-30T14:02:25;6.30;80.30
11762;DHT22;5938;47.098;15.474;2024-01-30T14:06:30;5.70;82.50
11762;DHT22;5938;47.098;15.474;2024-01-30T14:10:34;5.40;84.00
11762;DHT22;5938;47.098;15.474;2024-01-30T14:14:41;5.30;84.60
11762;DHT22;5938;47.098;15.474;2024-01-30T14:18:46;5.10;85.60
11762;DHT22;5938;47.098;15.474;2024-01-30T14:22:51;5.00;86.10
11762;DHT22;5938;47.098;15.474;2024-01-30T14:26:58;4.90;85.90
11762;DHT22;5938;47.098;15.474;2024-01-30T14:31:02;4.70;86.60
11762;DHT22;5938;47.098;15.474;2024-01-30T14:35:05;4.70;85.50
11762;DHT22;5938;47.098;15.474;2024-01-30T14:39:12;4.70;84.40
11762;DHT22;5938;47.098;15.474;2024-01-30T14:43:15;4.60;84.10
11762;DHT22;5938;47.098;15.474;2024-01-30T14:47:18;4.60;85.10
11762;DHT22;5938;47.098;15.474;2024-01-30T14:51:21;4.30;86.20
11762;DHT22;5938;47.098;15.474;2024-01-30T14:55:26;4.00;88.20
11762;DHT22;5938;47.098;15.474;2024-01-30T14:59:29;3.80;88.00
11762;DHT22;5938;47.098;15.474;2024-01-30T15:03:33;3.40;89.50
11762;DHT22;5938;47.098;15.474;2024-01-30T15:07:37;3.20;90.80
11762;DHT22;5938;47.098;15.474;2024-01-30T15:11:44;2.90;91.30
11762;DHT22;5938;47.098;15.474;2024-01-30T15:15:47;2.60;91.90
11762;DHT22;5938;47.098;15.474;2024-01-30T15:19:51;2.40;92.80
11762;DHT22;5938;47.098;15.474;2024-01-30T15:23:54;2.20;92.80
11762;DHT22;5938;47.098;15.474;2024-01-30T15:27:59;2.00;93.90
11762;DHT22;5938;47.098;15.474;2024-01-30T15:32:03;1.80;94.50
11762;DHT22;5938;47.098;15.474;2024-01-30T15:36:06;1.60;95.10
11762;DHT22;5938;47.098;15.474;2024-01-30T15:40:11;1.40;95.80
11762;DHT22;5938;47.098;15.474;2024-01-30T15:44:16;1.20;96.60
11762;DHT22;5938;47.098;15.474;2024-01-30T15:48:19;1.10;96.50
11762;DHT22;5938;47.098;15.474;2024-01-30T15:52:23;0.90;97.20
11762;DHT22;5938;47.098;15.474;2024-01-30T15:56:26;0.70;97.90
11762;DHT22;5938;47.098;15.474;2024-01-30T16:00:31;0.50;98.70
11762;DHT22;5938;47.098;15.474;2024-01-30T16:04:34;-0.10;99.40
11762;DHT22;5938;47.098;15.474;2024-01-30T16:08:37;0.40;99.90
11762;DHT22;5938;47.098;15.474;2024-01-30T16:12:41;0.00;99.90
11762;DHT22;5938;47.098;15.474;2024-01-30T16:16:48;-0.20;99.90
11762;DHT22;5938;47.098;15.474;2024-01-30T16:20:54;-0.50;99.90
11762;DHT22;5938;47.098;15.474;2024-01-30T16:24:57;-0.40;99.90
11762;DHT22;5938;47.098;15.474;2024-01-30T16:29:01;-0.60;99.90
11762;DHT22;5938;47.098;15.474;2024-01-30T16:33:06;-0.80;99.90
11762;DHT22;5938;47.098;15.474;2024-01-30T16:37:10;-0.60;99.90
11762;DHT22;5938;47.098;15.474;2024-01-30T16:41:13;-0.90;99.90
11762;DHT22;5938;47.098;15.474;2024-01-30T16:45:16;-1.00;99.90
11762;DHT22;5938;47.098;15.474;2024-01-30T16:49:21;-1.20;99.90
11762;DHT22;5938;47.098;15.474;2024-01-30T16:53:25;-1.30;99.90
11762;DHT22;5938;47.098;15.474;2024-01-30T16:57:28;-1.60;99.90
11762;DHT22;5938;47.098;15.474;2024-01-30T17:01:33;-1.40;99.90
11762;DHT22;5938;47.098;15.474;2024-01-30T17:05:38;-1.70;99.90
11762;DHT22;5938;47.098;15.474;2024-01-30T17:09:42;-1.70;99.90
11762;DHT22;5938;47.098;15.474;2024-01-30T17:13:48;-1.70;99.90
11762;DHT22;5938;47.098;15.474;2024-01-30T17:17:52;-1.70;99.90
11762;DHT22;5938;47.098;15.474;2024-01-30T17:21:57;-2.10;99.90
11762;DHT22;5938;47.098;15.474;2024-01-30T17:26:01;-2.00;99.90
11762;DHT22;5938;47.098;15.474;2024-01-30T17:30:06;-1.80;99.90
11762;DHT22;5938;47.098;15.474;2024-01-30T17:34:10;-2.00;99.90
11762;DHT22;5938;47.098;15.474;2024-01-30T17:38:15;-2.00;99.90
11762;DHT22;5938;47.098;15.474;2024-01-30T17:42:18;-1.80;99.90
11762;DHT22;5938;47.098;15.474;2024-01-30T17:46:23;-2.10;99.90
11762;DHT22;5938;47.098;15.474;2024-01-30T17:50:27;-2.10;99.90
11762;DHT22;5938;47.098;15.474;2024-01-30T17:54:32;-2.10;99.90
11762;DHT22;5938;47.098;15.474;2024-01-30T17:58:36;-2.20;99.90
11762;DHT22;5938;47.098;15.474;2024-01-30T18:02:41;-2.10;99.90
11762;DHT22;5938;47.098;15.474;2024-01-30T18:06:48;-2.10;99.90
11762;DHT22;5938;47.098;15.474;2024-01-30T18:10:54;-2.20;99.90
11762;DHT22;5938;47.098;15.474;2024-01-30T18:14:59;-2.40;99.90
11762;DHT22;5938;47.098;15.474;2024-01-30T18:19:02;-2.50;99.90
11762;DHT22;5938;47.098;15.474;2024-01-30T18:23:06;-2.60;99.90
11762;DHT22;5938;47.098;15.474;2024-01-30T18:27:11;-2.60;99.90
11762;DHT22;5938;47.098;15.474;2024-01-30T18:31:15;-2.70;99.90
11762;DHT22;5938;47.098;15.474;2024-01-30T18:35:23;-2.70;99.90
11762;DHT22;5938;47.098;15.474;2024-01-30T18:39:29;-2.80;99.90
11762;DHT22;5938;47.098;15.474;2024-01-30T18:43:34;-2.70;99.90
11762;DHT22;5938;47.098;15.474;2024-01-30T18:47:39;-2.70;99.90
11762;DHT22;5938;47.098;15.474;2024-01-30T18:51:43;-2.80;99.90
11762;DHT22;5938;47.098;15.474;2024-01-30T18:55:52;-2.90;99.90
11762;DHT22;5938;47.098;15.474;2024-01-30T19:00:00;-2.90;99.90
11762;DHT22;5938;47.098;15.474;2024-01-30T19:04:07;-2.90;99.90
11762;DHT22;5938;47.098;15.474;2024-01-30T19:08:14;-3.00;99.90
11762;DHT22;5938;47.098;15.474;2024-01-30T19:12:21;-2.90;99.90
11762;DHT22;5938;47.098;15.474;2024-01-30T19:16:28;-3.00;99.90
11762;DHT22;5938;47.098;15.474;2024-01-30T19:20:35;-2.90;99.90
11762;DHT22;5938;47.098;15.474;2024-01-30T19:24:40;-3.10;99.90
11762;DHT22;5938;47.098;15.474;2024-01-30T19:28:45;-3.00;99.90
11762;DHT22;5938;47.098;15.474;2024-01-30T19:32:54;-3.10;99.90
11762;DHT22;5938;47.098;15.474;2024-01-30T19:37:00;-3.00;99.90
11762;DHT22;5938;47.098;15.474;2024-01-30T19:41:06;-3.00;99.90
11762;DHT22;5938;47.098;15.474;2024-01-30T19:45:11;-3.40;99.90
11762;DHT22;5938;47.098;15.474;2024-01-30T19:49:19;-3.20;99.90
11762;DHT22;5938;47.098;15.474;2024-01-30T19:53:25;-3.20;99.90
11762;DHT22;5938;47.098;15.474;2024-01-30T19:57:31;-3.20;99.90
11762;DHT22;5938;47.098;15.474;2024-01-30T20:01:36;-3.50;99.90
11762;DHT22;5938;47.098;15.474;2024-01-30T20:05:43;-3.40;99.90
11762;DHT22;5938;47.098;15.474;2024-01-30T20:09:47;-3.50;99.90
11762;DHT22;5938;47.098;15.474;2024-01-30T20:13:52;-3.40;99.90
11762;DHT22;5938;47.098;15.474;2024-01-30T20:17:58;-3.50;99.90
11762;DHT22;5938;47.098;15.474;2024-01-30T20:22:05;-3.50;99.90
11762;DHT22;5938;47.098;15.474;2024-01-30T20:26:09;-3.60;99.90
11762;DHT22;5938;47.098;15.474;2024-01-30T20:30:16;-3.60;99.90
11762;DHT22;5938;47.098;15.474;2024-01-30T20:34:21;-3.40;99.90
11762;DHT22;5938;47.098;15.474;2024-01-30T20:38:27;-3.50;99.90
11762;DHT22;5938;47.098;15.474;2024-01-30T20:42:32;-3.70;99.90
11762;DHT22;5938;47.098;15.474;2024-01-30T20:46:38;-3.80;99.90
11762;DHT22;5938;47.098;15.474;2024-01-30T20:50:44;-3.50;99.90
11762;DHT22;5938;47.098;15.474;2024-01-30T20:54:51;-3.60;99.90
11762;DHT22;5938;47.098;15.474;2024-01-30T20:58:56;-3.60;99.90
11762;DHT22;5938;47.098;15.474;2024-01-30T21:03:01;-3.80;99.90
11762;DHT22;5938;47.098;15.474;2024-01-30T21:07:05;-4.00;99.90
11762;DHT22;5938;47.098;15.474;2024-01-30T21:11:12;-3.80;99.90
11762;DHT22;5938;47.098;15.474;2024-01-30T21:15:15;-3.80;99.90
11762;DHT22;5938;47.098;15.474;2024-01-30T21:19:19;-3.80;99.90
11762;DHT22;5938;47.098;15.474;2024-01-30T21:23:23;-3.70;99.90
11762;DHT22;5938;47.098;15.474;2024-01-30T21:27:27;-4.00;99.90
11762;DHT22;5938;47.098;15.474;2024-01-30T21:31:31;-4.10;99.90
11762;DHT22;5938;47.098;15.474;2024-01-30T21:35:35;-4.00;99.90
11762;DHT22;5938;47.098;15.474;2024-01-30T21:39:38;-4.20;99.90
11762;DHT22;5938;47.098;15.474;2024-01-30T21:43:43;-4.20;99.90
11762;DHT22;5938;47.098;15.474;2024-01-30T21:47:48;-3.90;99.90
11762;DHT22;5938;47.098;15.474;2024-01-30T21:51:53;-4.00;99.90
11762;DHT22;5938;47.098;15.474;2024-01-30T21:55:56;-4.10;99.90
11762;DHT22;5938;47.098;15.474;2024-01-30T22:00:01;-4.10;99.90
11762;DHT22;5938;47.098;15.474;2024-01-30T22:04:06;-4.10;99.90
11762;DHT22;5938;47.098;15.474;2024-01-30T22:08:09;-4.20;99.90
11762;DHT22;5938;47.098;15.474;2024-01-30T22:12:13;-4.20;99.90
11762;DHT22;5938;47.098;15.474;2024-01-30T22:16:17;-4.10;99.90
11762;DHT22;5938;47.098;15.474;2024-01-30T22:20:21;-4.10;99.90
11762;DHT22;5938;47.098;15.474;2024-01-30T22:24:24;-4.30;99.90
11762;DHT22;5938;47.098;15.474;2024-01-30T22:28:27;-4.30;99.90
11762;DHT22;5938;47.098;15.474;2024-01-30T22:32:32;-4.40;99.90
11762;DHT22;5938;47.098;15.474;2024-01-30T22:36:37;-4.50;99.90
11762;DHT22;5938;47.098;15.474;2024-01-30T22:40:40;-4.30;99.90
11762;DHT22;5938;47.098;15.474;2024-01-30T22:44:44;-4.40;99.90
11762;DHT22;5938;47.098;15.474;2024-01-30T22:48:49;-4.60;99.90
11762;DHT22;5938;47.098;15.474;2024-01-30T22:52:53;-4.50;99.90
11762;DHT22;5938;47.098;15.474;2024-01-30T22:56:56;-4.60;99.90
11762;DHT22;5938;47.098;15.474;2024-01-30T23:00:59;-4.50;99.90
11762;DHT22;5938;47.098;15.474;2024-01-30T23:05:04;-4.50;99.90
11762;DHT22;5938;47.098;15.474;2024-01-30T23:09:08;-4.60;99.90
11762;DHT22;5938;47.098;15.474;2024-01-30T23:13:11;-4.50;99.90
11762;DHT22;5938;47.098;15.474;2024-01-30T23:17:14;-4.50;99.90
11762;DHT22;5938;47.098;15.474;2024-01-30T23:21:19;-4.80;99.90
11762;DHT22;5938;47.098;15.474;2024-01-30T23:25:22;-4.80;99.90
11762;DHT22;5938;47.098;15.474;2024-01-30T23:29:25;-5.00;99.90
11762;DHT22;5938;47.098;15.474;2024-01-30T23:33:29;-4.80;99.90
11762;DHT22;5938;47.098;15.474;2024-01-30T23:37:34;-4.60;99.90
11762;DHT22;5938;47.098;15.474;2024-01-30T23:41:37;-4.60;99.90
11762;DHT22;5938;47.098;15.474;2024-01-30T23:45:40;-4.80;99.90
11762;DHT22;5938;47.098;15.474;2024-01-30T23:49:43;-4.70;99.90
11762;DHT22;5938;47.098;15.474;2024-01-30T23:53:50;-4.70;99.90
11762;DHT22;5938;47.098;15.474;2024-01-30T23:57:53;-4.70;99.90
